createdAt,value
2023-01-23T00:00:00.686Z,34.88
2023-01-23T00:01:04.315Z,29.05
2023-01-23T00:02:06.878Z,30.15
2023-01-23T00:03:08.729Z,28.02
2023-01-23T00:04:14.146Z,31.45
2023-01-23T00:05:15.766Z,25.52
2023-01-23T00:06:18.996Z,30.83
2023-01-23T00:07:20.496Z,27.67
2023-01-23T00:08:23.016Z,28.70
2023-01-23T00:09:25.855Z,27.48
2023-01-23T00:10:27.514Z,30.33
2023-01-23T00:11:31.882Z,30.98
2023-01-23T00:12:34.761Z,30.30
2023-01-23T00:13:37.366Z,28.02
2023-01-23T00:14:38.890Z,29.02
2023-01-23T00:15:41.471Z,29.30
2023-01-23T00:16:42.994Z,29.42
2023-01-23T00:17:46.349Z,32.22
2023-01-23T00:18:48.525Z,28.48
2023-01-23T00:19:53.900Z,28.33
2023-01-23T00:20:55.420Z,33.33
2023-01-23T00:22:00.673Z,25.85
2023-01-23T00:23:02.296Z,24.83
2023-01-23T00:24:05.450Z,27.50
2023-01-23T00:25:07.549Z,25.42
2023-01-23T00:26:12.410Z,28.23
2023-01-23T00:27:15.262Z,30.50
2023-01-23T00:28:18.112Z,27.70
2023-01-23T00:29:20.594Z,28.20
2023-01-23T00:30:22.087Z,25.65
2023-01-23T00:31:27.108Z,25.83
2023-01-23T00:32:28.727Z,23.75
2023-01-23T00:33:31.647Z,27.55
2023-01-23T00:34:33.795Z,21.80
2023-01-23T00:35:36.392Z,29.52
2023-01-23T00:36:39.748Z,26.20
2023-01-23T00:37:42.408Z,26.75
2023-01-23T00:38:44.451Z,27.20
2023-01-23T00:39:47.121Z,40.75
2023-01-23T00:40:48.860Z,27.80
2023-01-23T00:41:51.514Z,25.70
2023-01-23T00:42:53.546Z,29.95
2023-01-23T00:43:57.393Z,29.42
2023-01-23T00:44:58.926Z,29.15
2023-01-23T00:46:01.934Z,29.23
2023-01-23T00:47:03.595Z,25.05
2023-01-23T00:48:06.346Z,32.88
2023-01-23T00:49:08.199Z,28.23
2023-01-23T00:50:12.320Z,29.83
2023-01-23T00:51:14.548Z,28.63
2023-01-23T00:52:17.118Z,33.45
2023-01-23T00:53:19.326Z,33.97
2023-01-23T00:54:21.847Z,28.55
2023-01-23T00:55:23.404Z,27.65
2023-01-23T00:56:26.026Z,31.27
2023-01-23T00:57:28.080Z,29.17
2023-01-23T00:58:30.640Z,29.60
2023-01-23T00:59:34.452Z,30.60
2023-01-23T01:00:36.550Z,30.10
2023-01-23T01:01:39.365Z,27.02
2023-01-23T01:02:47.196Z,31.42
2023-01-23T01:03:50.003Z,24.73
2023-01-23T01:04:51.643Z,32.05
2023-01-23T01:05:54.219Z,30.73
2023-01-23T01:06:56.197Z,25.30
2023-01-23T01:07:59.206Z,27.10
2023-01-23T01:09:00.842Z,30.25
2023-01-23T01:10:03.716Z,27.23
2023-01-23T01:11:05.898Z,31.60
2023-01-23T01:12:08.600Z,29.23
2023-01-23T01:13:10.977Z,28.98
2023-01-23T01:14:13.658Z,25.48
2023-01-23T01:15:16.692Z,26.90
2023-01-23T01:16:19.693Z,27.27
2023-01-23T01:17:21.351Z,26.52
2023-01-23T01:18:24.221Z,26.77
2023-01-23T01:19:28.104Z,32.47
2023-01-23T01:20:31.073Z,31.98
2023-01-23T01:21:33.145Z,28.17
2023-01-23T01:22:35.637Z,32.83
2023-01-23T01:23:38.637Z,29.60
2023-01-23T01:24:42.291Z,27.42
2023-01-23T01:25:44.541Z,27.70
2023-01-23T01:26:47.039Z,27.60
2023-01-23T01:27:48.645Z,29.83
2023-01-23T01:28:51.240Z,32.20
2023-01-23T01:29:52.854Z,25.38
2023-01-23T01:30:56.786Z,30.00
2023-01-23T01:31:58.675Z,24.10
2023-01-23T01:33:01.217Z,27.63
2023-01-23T01:34:03.136Z,28.38
2023-01-23T01:35:07.060Z,26.05
2023-01-23T01:36:10.492Z,31.42
2023-01-23T01:37:13.344Z,25.92
2023-01-23T01:38:14.849Z,29.83
2023-01-23T01:39:17.384Z,27.17
2023-01-23T01:40:21.801Z,26.52
2023-01-23T01:41:24.471Z,33.78
2023-01-23T01:42:28.313Z,27.30
2023-01-23T01:43:31.761Z,27.40
2023-01-23T01:44:52.364Z,28.35
2023-01-23T01:46:17.637Z,30.70
2023-01-23T01:47:19.183Z,27.52
2023-01-23T01:48:25.500Z,29.60
2023-01-23T01:49:32.240Z,23.70
2023-01-23T01:50:35.274Z,26.88
2023-01-23T01:51:42.081Z,25.55
2023-01-23T01:52:44.409Z,27.98
2023-01-23T01:53:49.815Z,33.00
2023-01-23T01:54:57.958Z,25.40
2023-01-23T01:56:00.394Z,26.65
2023-01-23T01:57:07.592Z,34.30
2023-01-23T01:58:09.708Z,27.77
2023-01-23T01:59:13.990Z,28.08
2023-01-23T02:00:19.522Z,24.95
2023-01-23T02:01:23.553Z,29.27
2023-01-23T02:02:29.296Z,26.52
2023-01-23T02:03:31.884Z,28.63
2023-01-23T02:04:36.334Z,26.27
2023-01-23T02:05:42.584Z,24.95
2023-01-23T02:06:44.300Z,26.02
2023-01-23T02:07:54.234Z,26.92
2023-01-23T02:09:04.693Z,26.17
2023-01-23T02:10:07.735Z,26.15
2023-01-23T02:11:10.578Z,27.90
2023-01-23T02:12:13.426Z,25.83
2023-01-23T02:13:20.855Z,20.95
2023-01-23T02:14:25.607Z,28.77
2023-01-23T02:15:27.261Z,26.13
2023-01-23T02:16:40.042Z,27.73
2023-01-23T02:17:43.389Z,26.15
2023-01-23T02:18:49.821Z,23.63
2023-01-23T02:19:59.536Z,26.33
2023-01-23T02:21:06.508Z,26.85
2023-01-23T02:22:20.592Z,24.73
2023-01-23T02:23:33.630Z,24.17
2023-01-23T02:24:42.710Z,25.25
2023-01-23T02:25:54.972Z,26.38
2023-01-23T02:26:57.778Z,22.33
2023-01-23T02:27:59.461Z,24.38
2023-01-23T02:29:01.988Z,23.25
2023-01-23T02:30:06.071Z,25.40
2023-01-23T02:31:09.590Z,22.08
2023-01-23T02:32:11.751Z,24.85
2023-01-23T02:33:46.094Z,23.60
2023-01-23T02:34:48.808Z,22.52
2023-01-23T02:35:50.845Z,21.85
2023-01-23T02:36:53.359Z,22.85
2023-01-23T02:38:00.349Z,24.08
2023-01-23T02:39:07.167Z,22.70
2023-01-23T02:40:10.064Z,19.85
2023-01-23T02:41:15.452Z,23.38
2023-01-23T02:42:17.494Z,23.45
2023-01-23T02:43:24.592Z,22.35
2023-01-23T02:44:28.568Z,24.05
2023-01-23T02:45:31.452Z,27.63
2023-01-23T02:46:33.103Z,25.23
2023-01-23T02:47:36.093Z,24.08
2023-01-23T02:48:39.898Z,20.80
2023-01-23T02:49:43.100Z,24.23
2023-01-23T02:50:46.321Z,22.00
2023-01-23T02:51:49.124Z,22.00
2023-01-23T02:52:51.113Z,21.90
2023-01-23T02:53:53.935Z,25.85
2023-01-23T02:54:55.677Z,23.20
2023-01-23T02:55:58.751Z,20.80
2023-01-23T02:57:02.034Z,24.50
2023-01-23T02:58:18.532Z,24.92
2023-01-23T02:59:38.577Z,24.50
2023-01-23T03:00:43.918Z,24.38
2023-01-23T03:01:45.529Z,23.52
2023-01-23T03:02:48.902Z,23.00
2023-01-23T03:03:51.646Z,24.00
2023-01-23T03:04:54.530Z,22.05
2023-01-23T03:05:56.283Z,26.23
2023-01-23T03:06:59.135Z,24.20
2023-01-23T03:08:01.069Z,21.60
2023-01-23T03:09:10.841Z,24.70
2023-01-23T03:10:12.947Z,24.50
2023-01-23T03:11:17.052Z,26.05
2023-01-23T03:12:20.884Z,22.83
2023-01-23T03:13:22.392Z,22.08
2023-01-23T03:14:25.822Z,24.95
2023-01-23T03:15:27.733Z,23.38
2023-01-23T03:16:30.352Z,19.55
2023-01-23T03:17:33.113Z,24.33
2023-01-23T03:18:48.894Z,24.55
2023-01-23T03:19:57.596Z,24.42
2023-01-23T03:21:01.665Z,21.85
2023-01-23T03:22:04.172Z,23.88
2023-01-23T03:23:05.741Z,21.92
2023-01-23T03:24:09.860Z,22.15
2023-01-23T03:25:11.381Z,27.00
2023-01-23T03:26:13.968Z,21.92
2023-01-23T03:27:15.797Z,25.40
2023-01-23T03:28:33.846Z,21.17
2023-01-23T03:29:53.918Z,23.48
2023-01-23T03:30:56.619Z,23.50
2023-01-23T03:31:58.175Z,23.70
2023-01-23T03:33:00.696Z,22.42
2023-01-23T03:34:02.241Z,30.23
2023-01-23T03:35:05.381Z,20.80
2023-01-23T03:36:08.002Z,27.00
2023-01-23T03:37:12.524Z,26.02
2023-01-23T03:38:15.954Z,27.25
2023-01-23T03:39:36.338Z,24.70
2023-01-23T03:40:56.719Z,26.92
2023-01-23T03:41:59.248Z,24.38
2023-01-23T03:43:00.793Z,25.02
2023-01-23T03:44:04.864Z,21.10
2023-01-23T03:45:07.884Z,26.17
2023-01-23T03:46:10.831Z,25.98
2023-01-23T03:47:12.362Z,23.80
2023-01-23T03:48:14.861Z,22.75
2023-01-23T03:49:17.156Z,25.77
2023-01-23T03:50:20.256Z,26.65
2023-01-23T03:51:21.993Z,23.40
2023-01-23T03:52:24.523Z,20.00
2023-01-23T03:53:26.153Z,23.08
2023-01-23T03:54:28.687Z,23.75
2023-01-23T03:55:30.252Z,18.75
2023-01-23T03:56:32.765Z,24.40
2023-01-23T03:57:34.277Z,24.75
2023-01-23T03:58:36.787Z,23.77
2023-01-23T03:59:39.707Z,25.35
2023-01-23T04:00:42.453Z,25.17
2023-01-23T04:01:44.083Z,23.73
2023-01-23T04:02:49.691Z,21.98
2023-01-23T04:03:51.564Z,23.08
2023-01-23T04:04:55.404Z,22.40
2023-01-23T04:05:58.332Z,23.38
2023-01-23T04:07:01.228Z,23.77
2023-01-23T04:08:02.900Z,26.63
2023-01-23T04:09:05.488Z,25.13
2023-01-23T04:10:07.792Z,22.33
2023-01-23T04:11:12.063Z,20.52
2023-01-23T04:12:14.183Z,20.50
2023-01-23T04:13:17.043Z,25.48
2023-01-23T04:14:18.606Z,19.83
2023-01-23T04:15:22.501Z,21.17
2023-01-23T04:16:24.149Z,22.23
2023-01-23T04:17:26.651Z,23.80
2023-01-23T04:18:29.009Z,19.70
2023-01-23T04:19:31.809Z,20.73
2023-01-23T04:20:33.348Z,23.15
2023-01-23T04:21:35.849Z,20.35
2023-01-23T04:22:37.889Z,19.65
2023-01-23T04:23:40.439Z,26.48
2023-01-23T04:24:42.117Z,21.85
2023-01-23T04:25:44.860Z,20.52
2023-01-23T04:26:46.547Z,18.13
2023-01-23T04:27:49.029Z,24.58
2023-01-23T04:28:50.614Z,19.77
2023-01-23T04:29:53.108Z,21.63
2023-01-23T04:30:56.232Z,19.83
2023-01-23T04:31:58.865Z,20.58
2023-01-23T04:33:00.637Z,20.48
2023-01-23T04:34:03.355Z,20.25
2023-01-23T04:35:05.836Z,20.83
2023-01-23T04:36:09.081Z,19.20
2023-01-23T04:37:11.634Z,24.85
2023-01-23T04:38:13.252Z,19.17
2023-01-23T04:39:16.093Z,21.92
2023-01-23T04:40:17.905Z,19.35
2023-01-23T04:41:22.988Z,26.70
2023-01-23T04:42:24.515Z,21.65
2023-01-23T04:43:27.097Z,20.15
2023-01-23T04:44:37.805Z,21.50
2023-01-23T04:45:40.337Z,16.45
2023-01-23T04:46:43.244Z,21.13
2023-01-23T04:47:48.782Z,19.85
2023-01-23T04:48:50.311Z,19.90
2023-01-23T04:50:00.759Z,21.65
2023-01-23T04:51:03.285Z,17.98
2023-01-23T04:52:04.915Z,22.92
2023-01-23T04:53:07.718Z,20.67
2023-01-23T04:54:09.265Z,24.65
2023-01-23T04:55:11.882Z,24.00
2023-01-23T04:56:13.417Z,23.25
2023-01-23T04:57:15.956Z,24.40
2023-01-23T04:58:19.417Z,19.60
2023-01-23T04:59:21.964Z,24.55
2023-01-23T05:00:23.700Z,23.75
2023-01-23T05:01:26.261Z,24.65
2023-01-23T05:02:29.180Z,24.05
2023-01-23T05:03:32.818Z,24.13
2023-01-23T05:04:34.326Z,25.15
2023-01-23T05:05:36.867Z,26.45
2023-01-23T05:06:38.697Z,26.15
2023-01-23T05:07:41.715Z,23.23
2023-01-23T05:08:43.247Z,24.80
2023-01-23T05:09:45.748Z,26.40
2023-01-23T05:10:47.294Z,22.35
2023-01-23T05:11:50.021Z,25.23
2023-01-23T05:12:51.959Z,28.77
2023-01-23T05:13:54.492Z,24.90
2023-01-23T05:14:56.032Z,24.88
2023-01-23T05:15:58.630Z,24.80
2023-01-23T05:17:00.146Z,26.27
2023-01-23T05:18:04.088Z,22.00
2023-01-23T05:19:05.670Z,24.50
2023-01-23T05:20:09.536Z,29.52
2023-01-23T05:21:11.093Z,27.70
2023-01-23T05:22:13.724Z,24.10
2023-01-23T05:23:15.411Z,27.77
2023-01-23T05:24:18.018Z,22.50
2023-01-23T05:25:21.427Z,22.17
2023-01-23T05:26:23.946Z,22.08
2023-01-23T05:27:25.519Z,21.92
2023-01-23T05:28:28.026Z,25.25
2023-01-23T05:29:29.698Z,25.17
2023-01-23T05:30:32.477Z,25.33
2023-01-23T05:31:34.433Z,25.95
2023-01-23T05:32:36.987Z,25.42
2023-01-23T05:33:40.239Z,21.10
2023-01-23T05:34:42.696Z,21.55
2023-01-23T05:35:45.561Z,23.00
2023-01-23T05:36:47.122Z,26.95
2023-01-23T05:37:51.517Z,21.45
2023-01-23T05:38:55.137Z,21.35
2023-01-23T05:39:57.649Z,24.92
2023-01-23T05:40:59.200Z,20.83
2023-01-23T05:42:01.881Z,21.42
2023-01-23T05:43:03.457Z,21.30
2023-01-23T05:44:06.223Z,21.15
2023-01-23T05:45:08.098Z,23.98
2023-01-23T05:46:10.624Z,19.27
2023-01-23T05:47:12.196Z,23.10
2023-01-23T05:48:15.010Z,21.50
2023-01-23T05:49:18.854Z,21.20
2023-01-23T05:50:23.644Z,23.13
2023-01-23T05:51:31.499Z,20.23
2023-01-23T05:52:33.111Z,21.70
2023-01-23T05:53:35.587Z,27.25
2023-01-23T05:54:37.109Z,19.98
2023-01-23T05:55:39.941Z,20.85
2023-01-23T05:56:42.533Z,23.15
2023-01-23T05:57:44.049Z,19.65
2023-01-23T05:58:46.536Z,21.73
2023-01-23T05:59:48.264Z,19.92
2023-01-23T06:00:50.969Z,20.35
2023-01-23T06:01:52.969Z,18.35
2023-01-23T06:02:56.691Z,21.45
2023-01-23T06:03:58.284Z,21.85
2023-01-23T06:05:02.160Z,20.23
2023-01-23T06:06:03.904Z,17.02
2023-01-23T06:07:06.484Z,20.90
2023-01-23T06:08:08.106Z,18.13
2023-01-23T06:09:10.649Z,19.63
2023-01-23T06:10:12.178Z,15.82
2023-01-23T06:11:14.987Z,21.90
2023-01-23T06:12:16.532Z,18.77
2023-01-23T06:13:19.061Z,21.13
2023-01-23T06:14:20.973Z,23.13
2023-01-23T06:15:23.535Z,18.90
2023-01-23T06:16:25.493Z,21.40
2023-01-23T06:17:27.987Z,24.75
2023-01-23T06:18:29.894Z,19.63
2023-01-23T06:19:32.548Z,25.75
2023-01-23T06:20:35.555Z,20.10
2023-01-23T06:21:38.047Z,20.05
2023-01-23T06:22:39.797Z,19.02
2023-01-23T06:23:42.302Z,18.38
2023-01-23T06:24:43.829Z,20.95
2023-01-23T06:25:46.329Z,19.80
2023-01-23T06:26:48.882Z,20.48
2023-01-23T06:27:50.408Z,19.55
2023-01-23T06:28:53.006Z,20.92
2023-01-23T06:29:55.498Z,22.48
2023-01-23T06:31:00.845Z,23.25
2023-01-23T06:32:03.982Z,20.35
2023-01-23T06:33:05.541Z,17.95
2023-01-23T06:34:08.495Z,18.48
2023-01-23T06:35:10.394Z,17.98
2023-01-23T06:36:16.892Z,21.40
2023-01-23T06:37:18.647Z,20.50
2023-01-23T06:38:21.230Z,20.13
2023-01-23T06:39:24.018Z,18.48
2023-01-23T06:40:25.663Z,21.15
2023-01-23T06:41:28.218Z,19.08
2023-01-23T06:42:29.765Z,17.02
2023-01-23T06:43:32.364Z,20.60
2023-01-23T06:44:33.937Z,18.48
2023-01-23T06:45:36.469Z,19.27
2023-01-23T06:46:39.563Z,18.88
2023-01-23T06:47:41.109Z,20.85
2023-01-23T06:48:43.602Z,17.35
2023-01-23T06:49:45.149Z,18.73
2023-01-23T06:50:47.732Z,19.92
2023-01-23T06:51:50.634Z,22.55
2023-01-23T06:52:53.189Z,21.95
2023-01-23T06:53:56.167Z,19.30
2023-01-23T06:54:58.677Z,20.23
2023-01-23T06:56:01.197Z,19.83
2023-01-23T06:57:04.574Z,19.98
2023-01-23T06:58:06.414Z,20.73
2023-01-23T06:59:09.396Z,20.15
2023-01-23T07:00:12.199Z,18.95
2023-01-23T07:01:19.569Z,19.52
2023-01-23T07:02:21.171Z,15.73
2023-01-23T07:03:23.682Z,17.67
2023-01-23T07:04:26.232Z,19.55
2023-01-23T07:05:28.025Z,21.00
2023-01-23T07:06:31.675Z,18.23
2023-01-23T07:07:34.777Z,19.35
2023-01-23T07:08:37.800Z,21.33
2023-01-23T07:09:39.331Z,21.92
2023-01-23T07:10:42.312Z,18.13
2023-01-23T07:11:45.442Z,17.67
2023-01-23T07:12:47.962Z,16.05
2023-01-23T07:13:49.464Z,22.15
2023-01-23T07:14:51.942Z,17.98
2023-01-23T07:15:54.521Z,23.73
2023-01-23T07:16:57.231Z,17.58
2023-01-23T07:17:59.757Z,17.50
2023-01-23T07:19:02.421Z,19.85
2023-01-23T07:20:05.531Z,23.00
2023-01-23T07:21:09.231Z,19.08
2023-01-23T07:22:10.794Z,23.45
2023-01-23T07:23:14.668Z,20.90
2023-01-23T07:24:16.191Z,19.13
2023-01-23T07:25:18.753Z,18.17
2023-01-23T07:26:20.370Z,21.67
2023-01-23T07:27:22.954Z,18.83
2023-01-23T07:28:24.461Z,19.80
2023-01-23T07:29:27.069Z,19.40
2023-01-23T07:30:29.352Z,22.15
2023-01-23T07:31:32.138Z,20.67
2023-01-23T07:32:33.723Z,21.10
2023-01-23T07:33:36.377Z,18.65
2023-01-23T07:34:37.975Z,18.38
2023-01-23T07:35:41.137Z,21.27
2023-01-23T07:36:42.765Z,20.02
2023-01-23T07:37:45.254Z,22.70
2023-01-23T07:38:48.209Z,18.67
2023-01-23T07:39:50.748Z,18.55
2023-01-23T07:40:52.784Z,18.60
2023-01-23T07:41:55.334Z,16.83
2023-01-23T07:42:56.987Z,20.88
2023-01-23T07:43:59.478Z,20.33
2023-01-23T07:45:01.046Z,19.10
2023-01-23T07:46:03.653Z,21.50
2023-01-23T07:47:05.264Z,22.48
2023-01-23T07:48:08.349Z,19.85
2023-01-23T07:49:10.991Z,19.17
2023-01-23T07:50:14.653Z,19.23
2023-01-23T07:51:17.222Z,20.02
2023-01-23T07:52:19.214Z,24.33
2023-01-23T07:53:21.758Z,22.70
2023-01-23T07:54:25.735Z,18.33
2023-01-23T07:55:27.265Z,21.15
2023-01-23T07:56:29.809Z,20.45
2023-01-23T07:57:33.837Z,21.50
2023-01-23T07:58:37.105Z,23.48
2023-01-23T07:59:38.665Z,20.73
2023-01-23T08:00:42.457Z,27.83
2023-01-23T08:01:44.276Z,19.63
2023-01-23T08:02:46.902Z,18.98
2023-01-23T08:03:49.445Z,18.02
2023-01-23T08:04:52.087Z,20.90
2023-01-23T08:05:54.610Z,19.35
2023-01-23T08:06:57.199Z,16.95
2023-01-23T08:08:12.042Z,21.65
2023-01-23T08:09:15.866Z,22.25
2023-01-23T08:10:19.326Z,20.52
2023-01-23T08:11:23.873Z,21.38
2023-01-23T08:12:25.422Z,17.25
2023-01-23T08:13:27.899Z,17.67
2023-01-23T08:14:30.455Z,20.17
2023-01-23T08:15:32.974Z,19.25
2023-01-23T08:16:35.608Z,18.60
2023-01-23T08:17:38.293Z,22.42
2023-01-23T08:18:39.828Z,23.75
2023-01-23T08:19:42.356Z,19.02
2023-01-23T08:20:43.974Z,19.63
2023-01-23T08:21:46.890Z,22.75
2023-01-23T08:22:49.680Z,20.33
2023-01-23T08:23:51.232Z,22.83
2023-01-23T08:24:53.740Z,21.88
2023-01-23T08:25:59.153Z,20.88
2023-01-23T08:27:00.732Z,21.02
2023-01-23T08:28:03.193Z,24.40
2023-01-23T08:29:05.738Z,20.80
2023-01-23T08:30:09.400Z,19.90
2023-01-23T08:31:13.370Z,18.90
2023-01-23T08:32:16.433Z,20.08
2023-01-23T08:33:19.511Z,21.90
2023-01-23T08:34:22.040Z,22.60
2023-01-23T08:35:24.919Z,23.27
2023-01-23T08:36:27.487Z,18.50
2023-01-23T08:37:30.051Z,21.10
2023-01-23T08:38:32.373Z,19.08
2023-01-23T08:39:35.637Z,26.85
2023-01-23T08:40:37.229Z,21.50
2023-01-23T08:41:41.035Z,24.17
2023-01-23T08:42:42.578Z,17.10
2023-01-23T08:43:45.094Z,21.48
2023-01-23T08:44:46.612Z,16.67
2023-01-23T08:45:51.401Z,21.92
2023-01-23T08:46:53.924Z,24.05
2023-01-23T08:47:57.582Z,22.15
2023-01-23T08:49:00.055Z,24.52
2023-01-23T08:50:03.755Z,22.13
2023-01-23T08:51:25.536Z,20.77
2023-01-23T08:52:28.658Z,22.85
2023-01-23T08:53:31.996Z,24.42
2023-01-23T08:54:34.488Z,24.48
2023-01-23T08:55:38.756Z,18.75
2023-01-23T08:56:42.795Z,24.02
2023-01-23T08:57:44.391Z,23.88
2023-01-23T08:58:47.903Z,25.50
2023-01-23T08:59:50.688Z,27.23
2023-01-23T09:00:52.409Z,24.05
2023-01-23T09:01:55.023Z,25.23
2023-01-23T09:03:00.215Z,22.50
2023-01-23T09:04:02.745Z,27.17
2023-01-23T09:05:04.925Z,23.30
2023-01-23T09:06:07.946Z,23.05
2023-01-23T09:07:09.582Z,24.40
2023-01-23T09:08:12.134Z,22.17
2023-01-23T09:09:14.677Z,24.13
2023-01-23T09:10:17.299Z,22.58
2023-01-23T09:11:18.999Z,21.20
2023-01-23T09:12:22.914Z,22.02
2023-01-23T09:13:24.444Z,20.08
2023-01-23T09:14:26.942Z,23.27
2023-01-23T09:15:29.760Z,21.30
2023-01-23T09:16:32.281Z,21.95
2023-01-23T09:17:34.824Z,22.58
2023-01-23T09:18:38.237Z,21.98
2023-01-23T09:19:40.761Z,24.35
2023-01-23T09:20:42.278Z,24.98
2023-01-23T09:21:44.835Z,22.58
2023-01-23T09:22:46.474Z,20.73
2023-01-23T09:23:48.985Z,24.00
2023-01-23T09:24:50.492Z,21.27
2023-01-23T09:25:53.186Z,23.23
2023-01-23T09:26:55.694Z,22.73
2023-01-23T09:27:59.576Z,23.20
2023-01-23T09:29:02.538Z,22.52
2023-01-23T09:30:04.636Z,19.95
2023-01-23T09:31:08.984Z,18.02
2023-01-23T09:32:11.655Z,21.05
2023-01-23T09:33:14.501Z,18.38
2023-01-23T09:34:17.453Z,18.20
2023-01-23T09:35:20.006Z,20.35
2023-01-23T09:36:37.519Z,23.35
2023-01-23T09:38:04.570Z,16.42
2023-01-23T09:39:07.089Z,19.63
2023-01-23T09:40:16.450Z,19.98
2023-01-23T09:41:22.118Z,17.00
2023-01-23T09:42:29.006Z,19.95
2023-01-23T09:43:42.132Z,22.20
2023-01-23T09:44:48.563Z,20.33
2023-01-23T09:46:01.336Z,18.30
2023-01-23T09:47:08.833Z,18.80
2023-01-23T09:50:14.876Z,17.80
2023-01-23T09:51:24.511Z,18.73
2023-01-23T09:52:29.709Z,17.27
2023-01-23T09:53:36.410Z,15.75
2023-01-23T09:54:44.350Z,15.98
2023-01-23T09:55:50.929Z,15.70
2023-01-23T09:56:55.290Z,16.23
2023-01-23T09:57:59.862Z,17.27
2023-01-23T09:59:14.395Z,13.15
2023-01-23T10:00:23.588Z,19.25
2023-01-23T10:01:28.085Z,17.25
2023-01-23T10:02:31.040Z,15.73
2023-01-23T10:03:33.911Z,17.63
2023-01-23T10:04:36.204Z,19.23
2023-01-23T10:05:47.387Z,18.63
2023-01-23T10:07:10.192Z,20.55
2023-01-23T10:08:23.274Z,15.63
2023-01-23T10:09:41.246Z,17.48
2023-01-23T10:10:55.027Z,21.90
2023-01-23T10:12:04.511Z,15.10
2023-01-23T10:13:16.512Z,18.77
2023-01-23T10:14:40.318Z,20.05
2023-01-23T10:16:01.834Z,19.67
2023-01-23T10:17:14.073Z,17.52
2023-01-23T10:18:22.646Z,15.55
2023-01-23T10:19:41.646Z,20.48
2023-01-23T10:20:52.215Z,19.25
2023-01-23T10:22:02.580Z,23.80
2023-01-23T10:23:14.090Z,13.70
2023-01-23T10:24:40.076Z,19.52
2023-01-23T10:25:43.857Z,14.35
2023-01-23T10:26:47.975Z,14.10
2023-01-23T10:27:52.503Z,16.25
2023-01-23T10:29:00.956Z,15.23
2023-01-23T10:30:14.505Z,16.25
2023-01-23T10:31:29.412Z,17.63
2023-01-23T10:32:38.386Z,14.55
2023-01-23T10:33:49.540Z,16.65
2023-01-23T10:34:57.971Z,17.95
2023-01-23T10:36:06.959Z,16.60
2023-01-23T10:37:18.661Z,20.65
2023-01-23T10:38:28.056Z,16.05
2023-01-23T10:39:40.458Z,18.65
2023-01-23T10:41:00.398Z,18.15
2023-01-23T10:42:03.211Z,18.00
2023-01-23T10:43:12.506Z,17.67
2023-01-23T10:44:17.350Z,18.15
2023-01-23T10:45:23.633Z,18.52
2023-01-23T10:46:32.072Z,21.33
2023-01-23T10:47:38.707Z,18.88
2023-01-23T10:48:44.363Z,17.52
2023-01-23T10:49:47.879Z,18.92
2023-01-23T10:50:49.426Z,18.27
2023-01-23T10:51:51.991Z,20.77
2023-01-23T10:53:07.848Z,20.35
2023-01-23T10:54:29.895Z,18.90
2023-01-23T10:55:33.622Z,18.85
2023-01-23T10:56:38.952Z,22.33
2023-01-23T10:57:48.842Z,19.33
2023-01-23T10:58:54.971Z,21.23
2023-01-23T11:00:01.415Z,19.92
2023-01-23T11:01:26.966Z,19.40
2023-01-23T11:02:31.359Z,18.10
2023-01-23T11:03:34.915Z,16.73
2023-01-23T11:04:37.692Z,16.55
2023-01-23T11:05:52.159Z,21.02
2023-01-23T11:07:07.200Z,21.52
2023-01-23T11:08:23.990Z,19.73
2023-01-23T11:09:25.572Z,16.58
2023-01-23T11:10:29.431Z,27.33
2023-01-23T11:11:32.612Z,19.15
2023-01-23T11:12:47.087Z,17.77
2023-01-23T11:13:51.084Z,18.65
2023-01-23T11:15:13.087Z,17.63
2023-01-23T11:16:17.155Z,18.02
2023-01-23T11:17:26.327Z,14.80
2023-01-23T11:18:35.862Z,19.38
2023-01-23T11:19:38.515Z,25.40
2023-01-23T11:20:43.461Z,20.15
2023-01-23T11:21:54.034Z,19.38
2023-01-23T11:23:15.520Z,19.63
2023-01-23T11:24:27.825Z,17.60
2023-01-23T11:25:38.902Z,19.65
2023-01-23T11:26:41.411Z,19.67
2023-01-23T11:27:58.553Z,17.73
2023-01-23T11:29:01.104Z,18.30
2023-01-23T11:30:39.207Z,16.02
2023-01-23T11:31:42.964Z,19.00
2023-01-23T11:32:56.050Z,16.98
2023-01-23T11:34:04.922Z,18.70
2023-01-23T11:35:18.970Z,21.65
2023-01-23T11:36:44.011Z,21.52
2023-01-23T11:37:46.944Z,15.15
2023-01-23T11:38:54.669Z,17.23
2023-01-23T11:40:03.135Z,18.20
2023-01-23T11:41:05.408Z,19.13
2023-01-23T11:42:11.593Z,17.50
2023-01-23T11:43:14.661Z,15.82
2023-01-23T11:44:21.120Z,18.67
2023-01-23T11:45:41.093Z,15.50
2023-01-23T11:47:01.429Z,17.70
2023-01-23T11:48:22.019Z,18.13
2023-01-23T11:49:49.311Z,14.23
2023-01-23T11:51:01.127Z,15.90
2023-01-23T11:52:18.905Z,21.05
2023-01-23T11:53:41.113Z,20.63
2023-01-23T11:55:04.552Z,16.70
2023-01-23T11:56:23.106Z,16.88
2023-01-23T11:57:37.430Z,17.67
2023-01-23T11:59:05.421Z,16.73
2023-01-23T12:00:22.170Z,15.88
2023-01-23T12:01:32.305Z,18.75
2023-01-23T12:03:08.469Z,17.52
2023-01-23T12:04:44.895Z,20.13
2023-01-23T12:07:51.275Z,17.55
2023-01-23T12:09:05.544Z,17.83
2023-01-23T12:10:24.262Z,16.60
2023-01-23T12:11:36.743Z,14.57
2023-01-23T12:12:59.387Z,17.30
2023-01-23T12:14:10.721Z,16.52
2023-01-23T12:15:19.416Z,17.52
2023-01-23T12:16:28.347Z,19.63
2023-01-23T12:17:41.802Z,18.15
2023-01-23T12:18:50.951Z,20.83
2023-01-23T12:20:27.079Z,17.35
2023-01-23T12:21:39.300Z,17.60
2023-01-23T12:22:56.833Z,20.98
2023-01-23T12:24:13.465Z,17.23
2023-01-23T12:25:28.966Z,13.52
2023-01-23T12:26:33.073Z,15.23
2023-01-23T12:27:41.894Z,16.92
2023-01-23T12:29:11.491Z,16.40
2023-01-23T12:30:29.927Z,15.50
2023-01-23T12:31:45.779Z,24.92
2023-01-23T12:32:57.284Z,16.65
2023-01-23T12:34:23.484Z,15.57
2023-01-23T12:35:34.467Z,13.68
2023-01-23T12:37:08.127Z,15.73
2023-01-23T12:38:27.324Z,12.02
2023-01-23T12:39:49.096Z,13.57
2023-01-23T12:40:54.881Z,13.43
2023-01-23T12:42:03.922Z,12.95
2023-01-23T12:43:13.971Z,17.02
2023-01-23T12:44:19.571Z,15.70
2023-01-23T12:45:23.237Z,16.67
2023-01-23T12:46:31.964Z,14.00
2023-01-23T12:47:38.411Z,18.60
2023-01-23T12:48:47.611Z,13.43
2023-01-23T12:49:54.351Z,12.85
2023-01-23T12:51:02.146Z,13.57
2023-01-23T12:52:12.277Z,13.02
2023-01-23T12:53:15.669Z,14.82
2023-01-23T12:54:25.996Z,14.50
2023-01-23T12:55:34.115Z,11.07
2023-01-23T12:56:41.755Z,11.07
2023-01-23T12:57:59.854Z,12.25
2023-01-23T12:59:14.034Z,9.32
2023-01-23T13:00:31.604Z,11.23
2023-01-23T13:01:47.425Z,10.75
2023-01-23T13:02:59.304Z,13.88
2023-01-23T13:04:16.615Z,9.93
2023-01-23T13:05:24.380Z,10.77
2023-01-23T13:06:47.262Z,10.68
2023-01-23T13:07:59.793Z,9.20
2023-01-23T13:09:17.698Z,10.10
2023-01-23T13:10:57.757Z,7.60
2023-01-23T13:12:11.409Z,8.82
2023-01-23T13:13:13.411Z,10.48
2023-01-23T13:14:19.820Z,9.82
2023-01-23T13:15:40.042Z,10.75
2023-01-23T13:16:47.335Z,10.30
2023-01-23T13:17:50.871Z,10.32
2023-01-23T13:19:13.220Z,8.57
2023-01-23T13:20:56.563Z,10.00
2023-01-23T13:22:18.890Z,9.88
2023-01-23T13:23:31.175Z,8.80
2023-01-23T13:25:05.248Z,6.25
2023-01-23T13:26:31.752Z,7.45
2023-01-23T13:27:48.440Z,7.20
2023-01-23T13:28:53.820Z,6.75
2023-01-23T13:29:58.695Z,7.53
2023-01-23T13:31:02.862Z,9.65
2023-01-23T13:32:22.765Z,7.97
2023-01-23T13:33:58.928Z,8.77
2023-01-23T13:35:46.354Z,11.30
2023-01-23T13:36:50.047Z,8.85
2023-01-23T13:37:51.735Z,10.32
2023-01-23T13:39:28.642Z,7.40
2023-01-23T13:40:31.168Z,9.32
2023-01-23T13:41:33.742Z,9.77
2023-01-23T13:42:37.768Z,8.48
2023-01-23T13:43:44.101Z,6.85
2023-01-23T13:45:27.068Z,8.32
2023-01-23T14:28:40.578Z,14.40
2023-01-23T14:29:43.056Z,12.77
2023-01-23T14:30:54.719Z,11.00
2023-01-23T14:31:57.307Z,10.10
2023-01-23T14:32:59.181Z,15.10
2023-01-23T14:34:09.882Z,9.32
2023-01-23T14:35:17.929Z,11.75
2023-01-23T14:36:20.765Z,12.88
2023-01-23T14:37:22.914Z,12.60
2023-01-23T14:38:30.210Z,8.70
2023-01-23T14:39:35.880Z,11.98
2023-01-23T14:40:50.228Z,9.63
2023-01-23T14:41:56.255Z,8.93
2023-01-23T14:42:59.775Z,10.85
2023-01-23T14:44:04.519Z,11.57
2023-01-23T14:45:09.968Z,11.00
2023-01-23T14:46:17.803Z,9.63
2023-01-23T14:47:28.228Z,10.38
2023-01-23T14:48:36.642Z,9.90
2023-01-23T14:49:39.293Z,11.60
2023-01-23T14:50:41.554Z,11.70
2023-01-23T14:51:56.343Z,14.40
2023-01-23T14:53:00.092Z,12.40
2023-01-23T14:54:10.236Z,10.20
2023-01-23T14:55:32.895Z,8.90